sensor_id;sensor_type;location;lat;lon;timestamp;temperature;humidity
20171;DHT22;10245;51.344;6.620;2024-03-17T00:00:33;4.70;89.00
20171;DHT22;10245;51.344;6.620;2024-03-17T00:02:56;4.80;89.00
20171;DHT22;10245;51.344;6.620;2024-03-17T00:05:17;4.70;89.10
20171;DHT22;10245;51.344;6.620;2024-03-17T00:07:40;4.70;89.20
20171;DHT22;10245;51.344;6.620;2024-03-17T00:10:01;4.70;89.40
20171;DHT22;10245;51.344;6.620;2024-03-17T00:12:25;4.70;89.50
20171;DHT22;10245;51.344;6.620;2024-03-17T00:14:47;4.70;89.40
20171;DHT22;10245;51.344;6.620;2024-03-17T00:17:09;4.70;89.30
20171;DHT22;10245;51.344;6.620;2024-03-17T00:19:31;4.60;89.10
20171;DHT22;10245;51.344;6.620;2024-03-17T00:21:53;4.60;89.20
20171;DHT22;10245;51.344;6.620;2024-03-17T00:24:15;4.60;89.40
20171;DHT22;10245;51.344;6.620;2024-03-17T00:26:38;4.70;89.40
20171;DHT22;10245;51.344;6.620;2024-03-17T00:29:00;4.70;89.20
20171;DHT22;10245;51.344;6.620;2024-03-17T00:31:24;4.70;89.30
20171;DHT22;10245;51.344;6.620;2024-03-17T00:33:45;4.70;89.30
20171;DHT22;10245;51.344;6.620;2024-03-17T00:36:08;4.60;89.30
20171;DHT22;10245;51.344;6.620;2024-03-17T00:38:29;4.70;89.60
20171;DHT22;10245;51.344;6.620;2024-03-17T00:40:52;4.90;89.50
20171;DHT22;10245;51.344;6.620;2024-03-17T00:43:14;4.80;89.50
20171;DHT22;10245;51.344;6.620;2024-03-17T00:45:36;4.90;89.70
20171;DHT22;10245;51.344;6.620;2024-03-17T00:47:59;5.00;89.60
20171;DHT22;10245;51.344;6.620;2024-03-17T00:50:20;5.00;89.60
20171;DHT22;10245;51.344;6.620;2024-03-17T00:52:43;4.90;89.50
20171;DHT22;10245;51.344;6.620;2024-03-17T00:55:05;4.80;89.70
20171;DHT22;10245;51.344;6.620;2024-03-17T00:57:29;4.80;89.70
20171;DHT22;10245;51.344;6.620;2024-03-17T00:59:51;4.80;89.50
20171;DHT22;10245;51.344;6.620;2024-03-17T01:02:15;4.80;89.70
20171;DHT22;10245;51.344;6.620;2024-03-17T01:04:37;4.70;89.60
20171;DHT22;10245;51.344;6.620;2024-03-17T01:06:59;4.70;89.80
20171;DHT22;10245;51.344;6.620;2024-03-17T01:09:21;4.90;89.70
20171;DHT22;10245;51.344;6.620;2024-03-17T01:11:43;4.80;89.40
20171;DHT22;10245;51.344;6.620;2024-03-17T01:14:04;4.90;89.60
20171;DHT22;10245;51.344;6.620;2024-03-17T01:16:28;5.00;89.40
20171;DHT22;10245;51.344;6.620;2024-03-17T01:18:51;4.90;89.50
20171;DHT22;10245;51.344;6.620;2024-03-17T01:21:13;4.90;89.40
20171;DHT22;10245;51.344;6.620;2024-03-17T01:23:36;4.80;89.60
20171;DHT22;10245;51.344;6.620;2024-03-17T01:25:57;4.80;89.70
20171;DHT22;10245;51.344;6.620;2024-03-17T01:28:19;4.80;89.30
20171;DHT22;10245;51.344;6.620;2024-03-17T01:30:40;4.80;89.50
20171;DHT22;10245;51.344;6.620;2024-03-17T01:33:03;4.80;89.40
20171;DHT22;10245;51.344;6.620;2024-03-17T01:35:27;4.80;89.80
20171;DHT22;10245;51.344;6.620;2024-03-17T01:37:50;4.70;89.60
20171;DHT22;10245;51.344;6.620;2024-03-17T01:40:12;4.80;89.60
20171;DHT22;10245;51.344;6.620;2024-03-17T01:42:34;4.70;89.70
20171;DHT22;10245;51.344;6.620;2024-03-17T01:44:56;4.70;89.60
20171;DHT22;10245;51.344;6.620;2024-03-17T01:47:18;4.70;89.70
20171;DHT22;10245;51.344;6.620;2024-03-17T01:49:41;4.50;89.60
20171;DHT22;10245;51.344;6.620;2024-03-17T01:52:05;4.50;89.80
20171;DHT22;10245;51.344;6.620;2024-03-17T01:54:26;4.60;89.90
20171;DHT22;10245;51.344;6.620;2024-03-17T01:56:50;4.60;89.80
20171;DHT22;10245;51.344;6.620;2024-03-17T01:59:12;4.50;90.00
20171;DHT22;10245;51.344;6.620;2024-03-17T02:01:35;4.50;89.90
20171;DHT22;10245;51.344;6.620;2024-03-17T02:03:58;4.50;90.20
20171;DHT22;10245;51.344;6.620;2024-03-17T02:06:19;4.50;90.00
20171;DHT22;10245;51.344;6.620;2024-03-17T02:08:50;4.50;90.10
20171;DHT22;10245;51.344;6.620;2024-03-17T02:11:24;4.50;90.10
20171;DHT22;10245;51.344;6.620;2024-03-17T02:13:48;4.40;90.10
20171;DHT22;10245;51.344;6.620;2024-03-17T02:16:09;4.40;90.40
20171;DHT22;10245;51.344;6.620;2024-03-17T02:18:31;4.50;90.10
20171;DHT22;10245;51.344;6.620;2024-03-17T02:20:52;4.30;90.10
20171;DHT22;10245;51.344;6.620;2024-03-17T02:23:21;4.50;90.20
20171;DHT22;10245;51.344;6.620;2024-03-17T02:25:43;4.40;90.10
20171;DHT22;10245;51.344;6.620;2024-03-17T02:28:07;4.50;90.40
20171;DHT22;10245;51.344;6.620;2024-03-17T02:30:29;4.40;89.80
20171;DHT22;10245;51.344;6.620;2024-03-17T02:32:52;4.30;89.80
20171;DHT22;10245;51.344;6.620;2024-03-17T02:35:13;4.20;90.00
20171;DHT22;10245;51.344;6.620;2024-03-17T02:37:37;4.20;90.20
20171;DHT22;10245;51.344;6.620;2024-03-17T02:40:00;4.20;90.00
20171;DHT22;10245;51.344;6.620;2024-03-17T02:42:26;4.20;90.10
20171;DHT22;10245;51.344;6.620;2024-03-17T02:44:48;4.20;90.10
20171;DHT22;10245;51.344;6.620;2024-03-17T02:47:10;4.10;90.20
20171;DHT22;10245;51.344;6.620;2024-03-17T02:49:36;4.10;90.30
20171;DHT22;10245;51.344;6.620;2024-03-17T02:52:00;4.00;90.40
20171;DHT22;10245;51.344;6.620;2024-03-17T02:54:21;4.00;90.30
20171;DHT22;10245;51.344;6.620;2024-03-17T02:56:45;4.00;90.40
20171;DHT22;10245;51.344;6.620;2024-03-17T02:59:07;4.00;90.40
20171;DHT22;10245;51.344;6.620;2024-03-17T03:01:30;4.10;90.40
20171;DHT22;10245;51.344;6.620;2024-03-17T03:03:52;4.00;90.30
20171;DHT22;10245;51.344;6.620;2024-03-17T03:06:15;4.00;90.40
20171;DHT22;10245;51.344;6.620;2024-03-17T03:08:41;4.00;90.40
20171;DHT22;10245;51.344;6.620;2024-03-17T03:11:06;4.00;90.50
20171;DHT22;10245;51.344;6.620;2024-03-17T03:13:33;4.00;90.30
20171;DHT22;10245;51.344;6.620;2024-03-17T03:15:55;4.00;90.50
20171;DHT22;10245;51.344;6.620;2024-03-17T03:18:17;3.90;90.20
20171;DHT22;10245;51.344;6.620;2024-03-17T03:20:39;3.90;90.30
20171;DHT22;10245;51.344;6.620;2024-03-17T03:23:02;3.90;90.40
20171;DHT22;10245;51.344;6.620;2024-03-17T03:25:25;3.90;90.30
20171;DHT22;10245;51.344;6.620;2024-03-17T03:27:48;4.00;90.40
20171;DHT22;10245;51.344;6.620;2024-03-17T03:30:13;3.90;90.10
20171;DHT22;10245;51.344;6.620;2024-03-17T03:32:36;3.80;90.40
20171;DHT22;10245;51.344;6.620;2024-03-17T03:34:59;3.70;90.30
20171;DHT22;10245;51.344;6.620;2024-03-17T03:37:21;3.70;90.40
20171;DHT22;10245;51.344;6.620;2024-03-17T03:39:44;3.80;90.40
20171;DHT22;10245;51.344;6.620;2024-03-17T03:42:06;3.80;90.40
20171;DHT22;10245;51.344;6.620;2024-03-17T03:44:28;3.70;90.60
20171;DHT22;10245;51.344;6.620;2024-03-17T03:46:53;3.80;90.60
20171;DHT22;10245;51.344;6.620;2024-03-17T03:49:19;3.70;90.70
20171;DHT22;10245;51.344;6.620;2024-03-17T03:51:41;3.80;90.70
20171;DHT22;10245;51.344;6.620;2024-03-17T03:54:03;3.80;90.60
20171;DHT22;10245;51.344;6.620;2024-03-17T03:56:27;3.70;90.40
20171;DHT22;10245;51.344;6.620;2024-03-17T03:58:50;3.70;90.70
20171;DHT22;10245;51.344;6.620;2024-03-17T04:01:12;3.70;90.90
20171;DHT22;10245;51.344;6.620;2024-03-17T04:03:43;3.80;90.70
20171;DHT22;10245;51.344;6.620;2024-03-17T04:06:07;3.80;90.70
20171;DHT22;10245;51.344;6.620;2024-03-17T04:08:32;3.80;90.70
20171;DHT22;10245;51.344;6.620;2024-03-17T04:10:55;3.80;90.70
20171;DHT22;10245;51.344;6.620;2024-03-17T04:13:17;3.90;90.80
20171;DHT22;10245;51.344;6.620;2024-03-17T04:15:41;3.90;90.70
20171;DHT22;10245;51.344;6.620;2024-03-17T04:18:04;3.80;90.90
20171;DHT22;10245;51.344;6.620;2024-03-17T04:20:28;3.80;90.90
20171;DHT22;10245;51.344;6.620;2024-03-17T04:22:50;3.90;90.80
20171;DHT22;10245;51.344;6.620;2024-03-17T04:25:12;3.90;91.00
20171;DHT22;10245;51.344;6.620;2024-03-17T04:27:35;3.90;91.10
20171;DHT22;10245;51.344;6.620;2024-03-17T04:29:59;4.00;91.10
20171;DHT22;10245;51.344;6.620;2024-03-17T04:32:22;4.00;91.00
20171;DHT22;10245;51.344;6.620;2024-03-17T04:34:45;4.00;91.10
20171;DHT22;10245;51.344;6.620;2024-03-17T04:37:10;4.10;91.00
20171;DHT22;10245;51.344;6.620;2024-03-17T04:39:33;4.30;91.10
20171;DHT22;10245;51.344;6.620;2024-03-17T04:41:56;4.50;91.00
20171;DHT22;10245;51.344;6.620;2024-03-17T04:44:18;4.50;91.10
20171;DHT22;10245;51.344;6.620;2024-03-17T04:46:41;4.70;91.00
20171;DHT22;10245;51.344;6.620;2024-03-17T04:49:05;4.70;90.90
20171;DHT22;10245;51.344;6.620;2024-03-17T04:51:27;4.60;90.70
20171;DHT22;10245;51.344;6.620;2024-03-17T04:53:51;4.80;91.20
20171;DHT22;10245;51.344;6.620;2024-03-17T04:56:13;4.80;91.00
20171;DHT22;10245;51.344;6.620;2024-03-17T04:58:35;4.80;90.90
20171;DHT22;10245;51.344;6.620;2024-03-17T05:01:03;4.90;90.90
20171;DHT22;10245;51.344;6.620;2024-03-17T05:03:27;4.90;90.90
20171;DHT22;10245;51.344;6.620;2024-03-17T05:05:58;4.80;90.80
20171;DHT22;10245;51.344;6.620;2024-03-17T05:08:23;4.90;90.80
20171;DHT22;10245;51.344;6.620;2024-03-17T05:10:46;4.80;90.80
20171;DHT22;10245;51.344;6.620;2024-03-17T05:13:08;4.80;90.80
20171;DHT22;10245;51.344;6.620;2024-03-17T05:15:32;4.80;90.70
20171;DHT22;10245;51.344;6.620;2024-03-17T05:17:54;4.70;90.60
20171;DHT22;10245;51.344;6.620;2024-03-17T05:20:17;4.90;90.70
20171;DHT22;10245;51.344;6.620;2024-03-17T05:22:40;4.90;90.50
20171;DHT22;10245;51.344;6.620;2024-03-17T05:25:03;4.90;90.40
20171;DHT22;10245;51.344;6.620;2024-03-17T05:27:28;5.00;90.40
20171;DHT22;10245;51.344;6.620;2024-03-17T05:29:50;4.90;90.50
20171;DHT22;10245;51.344;6.620;2024-03-17T05:32:12;4.80;90.50
20171;DHT22;10245;51.344;6.620;2024-03-17T05:34:35;4.70;90.50
20171;DHT22;10245;51.344;6.620;2024-03-17T05:36:57;4.70;90.70
20171;DHT22;10245;51.344;6.620;2024-03-17T05:39:19;4.80;90.70
20171;DHT22;10245;51.344;6.620;2024-03-17T05:41:43;4.90;90.80
20171;DHT22;10245;51.344;6.620;2024-03-17T05:44:06;5.00;90.80
20171;DHT22;10245;51.344;6.620;2024-03-17T05:46:29;4.90;90.60
20171;DHT22;10245;51.344;6.620;2024-03-17T05:48:52;4.80;90.70
20171;DHT22;10245;51.344;6.620;2024-03-17T05:51:14;4.90;90.40
20171;DHT22;10245;51.344;6.620;2024-03-17T05:53:37;5.00;90.60
20171;DHT22;10245;51.344;6.620;2024-03-17T05:56:02;5.00;90.50
20171;DHT22;10245;51.344;6.620;2024-03-17T05:58:25;4.80;90.30
20171;DHT22;10245;51.344;6.620;2024-03-17T06:00:49;4.90;90.80
20171;DHT22;10245;51.344;6.620;2024-03-17T06:03:11;4.80;90.60
20171;DHT22;10245;51.344;6.620;2024-03-17T06:05:34;4.70;90.40
20171;DHT22;10245;51.344;6.620;2024-03-17T06:07:57;4.70;90.80
20171;DHT22;10245;51.344;6.620;2024-03-17T06:10:19;4.70;90.70
20171;DHT22;10245;51.344;6.620;2024-03-17T06:12:45;4.80;91.10
20171;DHT22;10245;51.344;6.620;2024-03-17T06:15:07;5.00;90.90
20171;DHT22;10245;51.344;6.620;2024-03-17T06:17:32;5.00;91.00
20171;DHT22;10245;51.344;6.620;2024-03-17T06:19:54;5.20;90.60
20171;DHT22;10245;51.344;6.620;2024-03-17T06:22:18;5.10;90.50
20171;DHT22;10245;51.344;6.620;2024-03-17T06:24:41;5.20;91.30
20171;DHT22;10245;51.344;6.620;2024-03-17T06:27:03;5.40;91.20
20171;DHT22;10245;51.344;6.620;2024-03-17T06:29:27;5.50;91.10
20171;DHT22;10245;51.344;6.620;2024-03-17T06:31:50;5.50;91.10
20171;DHT22;10245;51.344;6.620;2024-03-17T06:34:13;5.60;91.00
20171;DHT22;10245;51.344;6.620;2024-03-17T06:36:36;5.60;90.70
20171;DHT22;10245;51.344;6.620;2024-03-17T06:38:59;5.70;90.80
20171;DHT22;10245;51.344;6.620;2024-03-17T06:41:21;5.70;90.90
20171;DHT22;10245;51.344;6.620;2024-03-17T06:43:44;5.80;90.60
20171;DHT22;10245;51.344;6.620;2024-03-17T06:46:06;5.80;90.40
20171;DHT22;10245;51.344;6.620;2024-03-17T06:48:29;5.80;90.30
20171;DHT22;10245;51.344;6.620;2024-03-17T06:50:54;6.00;90.30
20171;DHT22;10245;51.344;6.620;2024-03-17T06:53:16;6.00;90.10
20171;DHT22;10245;51.344;6.620;2024-03-17T06:55:39;6.00;89.40
20171;DHT22;10245;51.344;6.620;2024-03-17T06:58:01;6.10;89.20
20171;DHT22;10245;51.344;6.620;2024-03-17T07:00:24;6.10;88.60
20171;DHT22;10245;51.344;6.620;2024-03-17T07:02:49;6.20;89.10
20171;DHT22;10245;51.344;6.620;2024-03-17T07:05:12;6.10;88.60
20171;DHT22;10245;51.344;6.620;2024-03-17T07:07:37;6.20;88.70
20171;DHT22;10245;51.344;6.620;2024-03-17T07:09:59;6.10;87.60
20171;DHT22;10245;51.344;6.620;2024-03-17T07:12:25;6.10;88.20
20171;DHT22;10245;51.344;6.620;2024-03-17T07:14:50;6.20;88.20
20171;DHT22;10245;51.344;6.620;2024-03-17T07:17:13;6.20;87.50
20171;DHT22;10245;51.344;6.620;2024-03-17T07:19:35;6.20;88.00
20171;DHT22;10245;51.344;6.620;2024-03-17T07:21:57;6.30;87.70
20171;DHT22;10245;51.344;6.620;2024-03-17T07:24:21;6.30;87.40
20171;DHT22;10245;51.344;6.620;2024-03-17T07:26:44;6.30;87.00
20171;DHT22;10245;51.344;6.620;2024-03-17T07:29:07;6.50;87.20
20171;DHT22;10245;51.344;6.620;2024-03-17T07:31:29;6.50;87.00
20171;DHT22;10245;51.344;6.620;2024-03-17T07:33:52;6.80;87.20
20171;DHT22;10245;51.344;6.620;2024-03-17T07:36:15;7.00;86.30
20171;DHT22;10245;51.344;6.620;2024-03-17T07:38:37;7.40;86.00
20171;DHT22;10245;51.344;6.620;2024-03-17T07:41:02;7.60;85.50
20171;DHT22;10245;51.344;6.620;2024-03-17T07:43:26;7.80;83.70
20171;DHT22;10245;51.344;6.620;2024-03-17T07:45:56;7.90;84.60
20171;DHT22;10245;51.344;6.620;2024-03-17T07:48:20;8.10;82.70
20171;DHT22;10245;51.344;6.620;2024-03-17T07:50:53;8.00;83.00
20171;DHT22;10245;51.344;6.620;2024-03-17T07:53:16;7.50;81.40
20171;DHT22;10245;51.344;6.620;2024-03-17T07:55:38;7.60;82.20
20171;DHT22;10245;51.344;6.620;2024-03-17T07:58:02;7.50;81.50
20171;DHT22;10245;51.344;6.620;2024-03-17T08:00:25;7.50;82.30
20171;DHT22;10245;51.344;6.620;2024-03-17T08:02:47;7.40;82.50
20171;DHT22;10245;51.344;6.620;2024-03-17T08:05:10;7.50;81.40
20171;DHT22;10245;51.344;6.620;2024-03-17T08:07:32;7.80;82.40
20171;DHT22;10245;51.344;6.620;2024-03-17T08:09:55;7.90;81.40
20171;DHT22;10245;51.344;6.620;2024-03-17T08:12:17;8.00;81.60
20171;DHT22;10245;51.344;6.620;2024-03-17T08:14:41;8.20;81.20
20171;DHT22;10245;51.344;6.620;2024-03-17T08:17:03;8.40;79.10
20171;DHT22;10245;51.344;6.620;2024-03-17T08:19:27;8.30;80.10
20171;DHT22;10245;51.344;6.620;2024-03-17T08:21:49;8.30;79.40
20171;DHT22;10245;51.344;6.620;2024-03-17T08:24:11;8.50;80.40
20171;DHT22;10245;51.344;6.620;2024-03-17T08:26:33;9.20;79.60
20171;DHT22;10245;51.344;6.620;2024-03-17T08:28:56;9.00;77.70
20171;DHT22;10245;51.344;6.620;2024-03-17T08:31:20;9.30;78.90
20171;DHT22;10245;51.344;6.620;2024-03-17T08:33:42;9.50;77.90
20171;DHT22;10245;51.344;6.620;2024-03-17T08:36:06;9.10;76.80
20171;DHT22;10245;51.344;6.620;2024-03-17T08:38:31;8.80;77.00
20171;DHT22;10245;51.344;6.620;2024-03-17T08:40:55;9.30;76.70
20171;DHT22;10245;51.344;6.620;2024-03-17T08:43:17;9.30;76.80
20171;DHT22;10245;51.344;6.620;2024-03-17T08:45:40;9.30;77.50
20171;DHT22;10245;51.344;6.620;2024-03-17T08:48:06;9.40;76.10
20171;DHT22;10245;51.344;6.620;2024-03-17T08:50:29;9.60;76.00
20171;DHT22;10245;51.344;6.620;2024-03-17T08:52:54;9.30;76.00
20171;DHT22;10245;51.344;6.620;2024-03-17T08:55:16;9.50;76.00
20171;DHT22;10245;51.344;6.620;2024-03-17T08:57:38;9.50;76.50
20171;DHT22;10245;51.344;6.620;2024-03-17T09:00:01;9.60;76.60
20171;DHT22;10245;51.344;6.620;2024-03-17T09:02:23;9.70;76.60
20171;DHT22;10245;51.344;6.620;2024-03-17T09:04:47;9.70;75.70
20171;DHT22;10245;51.344;6.620;2024-03-17T09:07:10;9.60;75.10
20171;DHT22;10245;51.344;6.620;2024-03-17T09:09:34;9.50;76.20
20171;DHT22;10245;51.344;6.620;2024-03-17T09:11:57;9.50;77.00
20171;DHT22;10245;51.344;6.620;2024-03-17T09:14:20;9.50;76.90
20171;DHT22;10245;51.344;6.620;2024-03-17T09:16:43;9.50;76.90
20171;DHT22;10245;51.344;6.620;2024-03-17T09:19:05;9.40;77.10
20171;DHT22;10245;51.344;6.620;2024-03-17T09:21:31;9.50;76.60
20171;DHT22;10245;51.344;6.620;2024-03-17T09:23:54;9.50;75.90
20171;DHT22;10245;51.344;6.620;2024-03-17T09:26:17;9.50;76.60
20171;DHT22;10245;51.344;6.620;2024-03-17T09:28:39;9.50;77.70
20171;DHT22;10245;51.344;6.620;2024-03-17T09:31:02;9.80;76.80
20171;DHT22;10245;51.344;6.620;2024-03-17T09:33:28;9.80;75.40
20171;DHT22;10245;51.344;6.620;2024-03-17T09:35:55;9.90;76.00
20171;DHT22;10245;51.344;6.620;2024-03-17T09:38:19;10.10;75.30
20171;DHT22;10245;51.344;6.620;2024-03-17T09:40:46;10.00;76.10
20171;DHT22;10245;51.344;6.620;2024-03-17T09:43:09;10.00;74.40
20171;DHT22;10245;51.344;6.620;2024-03-17T09:45:33;10.00;75.30
20171;DHT22;10245;51.344;6.620;2024-03-17T09:47:56;10.10;75.30
20171;DHT22;10245;51.344;6.620;2024-03-17T09:50:19;10.00;75.80
20171;DHT22;10245;51.344;6.620;2024-03-17T09:52:44;10.20;75.90
20171;DHT22;10245;51.344;6.620;2024-03-17T09:55:09;10.10;75.30
20171;DHT22;10245;51.344;6.620;2024-03-17T09:57:37;10.20;75.30
20171;DHT22;10245;51.344;6.620;2024-03-17T10:00:10;10.30;74.90
20171;DHT22;10245;51.344;6.620;2024-03-17T10:02:35;10.40;75.10
20171;DHT22;10245;51.344;6.620;2024-03-17T10:04:57;10.50;75.10
20171;DHT22;10245;51.344;6.620;2024-03-17T10:07:37;10.50;74.00
20171;DHT22;10245;51.344;6.620;2024-03-17T10:10:11;10.60;74.60
20171;DHT22;10245;51.344;6.620;2024-03-17T10:12:34;10.70;73.80
20171;DHT22;10245;51.344;6.620;2024-03-17T10:15:00;10.70;74.00
20171;DHT22;10245;51.344;6.620;2024-03-17T10:17:29;10.70;74.00
20171;DHT22;10245;51.344;6.620;2024-03-17T10:19:52;10.80;73.50
20171;DHT22;10245;51.344;6.620;2024-03-17T10:22:15;11.00;74.20
20171;DHT22;10245;51.344;6.620;2024-03-17T10:24:37;11.10;72.60
20171;DHT22;10245;51.344;6.620;2024-03-17T10:27:02;11.00;72.30
20171;DHT22;10245;51.344;6.620;2024-03-17T10:29:26;11.10;71.70
20171;DHT22;10245;51.344;6.620;2024-03-17T10:31:52;11.00;71.90
20171;DHT22;10245;51.344;6.620;2024-03-17T10:34:15;11.10;73.60
20171;DHT22;10245;51.344;6.620;2024-03-17T10:36:39;11.30;72.30
20171;DHT22;10245;51.344;6.620;2024-03-17T10:39:02;11.20;71.20
20171;DHT22;10245;51.344;6.620;2024-03-17T10:41:27;11.30;72.20
20171;DHT22;10245;51.344;6.620;2024-03-17T10:43:52;11.40;72.00
20171;DHT22;10245;51.344;6.620;2024-03-17T10:46:18;11.50;71.70
20171;DHT22;10245;51.344;6.620;2024-03-17T10:48:43;11.50;71.50
20171;DHT22;10245;51.344;6.620;2024-03-17T10:51:08;11.50;70.20
20171;DHT22;10245;51.344;6.620;2024-03-17T10:53:38;11.70;70.90
20171;DHT22;10245;51.344;6.620;2024-03-17T10:56:05;11.90;72.40
20171;DHT22;10245;51.344;6.620;2024-03-17T10:58:33;12.00;71.60
20171;DHT22;10245;51.344;6.620;2024-03-17T11:01:01;12.00;70.10
20171;DHT22;10245;51.344;6.620;2024-03-17T11:03:24;11.90;69.10
20171;DHT22;10245;51.344;6.620;2024-03-17T11:05:50;12.00;69.40
20171;DHT22;10245;51.344;6.620;2024-03-17T11:08:16;12.20;70.60
20171;DHT22;10245;51.344;6.620;2024-03-17T11:10:39;12.10;69.00
20171;DHT22;10245;51.344;6.620;2024-03-17T11:13:01;12.30;70.00
20171;DHT22;10245;51.344;6.620;2024-03-17T11:15:48;12.50;69.30
20171;DHT22;10245;51.344;6.620;2024-03-17T11:18:36;12.60;68.80
20171;DHT22;10245;51.344;6.620;2024-03-17T11:21:00;12.50;68.40
20171;DHT22;10245;51.344;6.620;2024-03-17T11:23:28;12.80;70.30
20171;DHT22;10245;51.344;6.620;2024-03-17T11:25:52;12.80;68.10
20171;DHT22;10245;51.344;6.620;2024-03-17T11:28:47;13.00;69.00
20171;DHT22;10245;51.344;6.620;2024-03-17T11:31:31;13.00;67.10
20171;DHT22;10245;51.344;6.620;2024-03-17T11:34:05;12.90;67.40
20171;DHT22;10245;51.344;6.620;2024-03-17T11:36:37;13.10;68.20
20171;DHT22;10245;51.344;6.620;2024-03-17T11:39:02;13.10;68.10
20171;DHT22;10245;51.344;6.620;2024-03-17T11:41:30;13.00;67.20
20171;DHT22;10245;51.344;6.620;2024-03-17T11:44:14;12.90;66.60
20171;DHT22;10245;51.344;6.620;2024-03-17T11:46:36;12.80;68.80
20171;DHT22;10245;51.344;6.620;2024-03-17T11:48:59;12.90;67.00
20171;DHT22;10245;51.344;6.620;2024-03-17T11:51:26;13.00;66.50
20171;DHT22;10245;51.344;6.620;2024-03-17T11:53:57;13.00;67.90
20171;DHT22;10245;51.344;6.620;2024-03-17T11:56:23;13.20;67.20
20171;DHT22;10245;51.344;6.620;2024-03-17T11:58:47;13.40;66.00
20171;DHT22;10245;51.344;6.620;2024-03-17T12:01:08;13.60;66.40
20171;DHT22;10245;51.344;6.620;2024-03-17T12:03:31;13.50;64.00
20171;DHT22;10245;51.344;6.620;2024-03-17T12:05:54;13.40;64.70
20171;DHT22;10245;51.344;6.620;2024-03-17T12:08:20;13.40;65.00
20171;DHT22;10245;51.344;6.620;2024-03-17T12:10:47;13.30;65.10
20171;DHT22;10245;51.344;6.620;2024-03-17T12:13:12;13.30;65.80
20171;DHT22;10245;51.344;6.620;2024-03-17T12:15:35;13.30;66.10
20171;DHT22;10245;51.344;6.620;2024-03-17T12:17:57;13.10;66.80
20171;DHT22;10245;51.344;6.620;2024-03-17T12:20:21;13.50;64.80
20171;DHT22;10245;51.344;6.620;2024-03-17T12:22:45;13.60;67.00
20171;DHT22;10245;51.344;6.620;2024-03-17T12:25:17;13.50;64.60
20171;DHT22;10245;51.344;6.620;2024-03-17T12:27:44;13.30;63.50
20171;DHT22;10245;51.344;6.620;2024-03-17T12:30:09;13.10;64.90
20171;DHT22;10245;51.344;6.620;2024-03-17T12:32:32;13.30;64.80
20171;DHT22;10245;51.344;6.620;2024-03-17T12:34:55;13.40;65.40
20171;DHT22;10245;51.344;6.620;2024-03-17T12:37:19;13.80;66.50
20171;DHT22;10245;51.344;6.620;2024-03-17T12:39:43;14.00;64.70
20171;DHT22;10245;51.344;6.620;2024-03-17T12:42:06;13.90;62.60
20171;DHT22;10245;51.344;6.620;2024-03-17T12:44:29;14.00;63.50
20171;DHT22;10245;51.344;6.620;2024-03-17T12:46:55;14.00;63.00
20171;DHT22;10245;51.344;6.620;2024-03-17T12:49:17;14.00;63.40
20171;DHT22;10245;51.344;6.620;2024-03-17T12:51:40;14.00;64.30
20171;DHT22;10245;51.344;6.620;2024-03-17T12:54:12;14.00;63.60
20171;DHT22;10245;51.344;6.620;2024-03-17T12:56:36;13.80;65.00
20171;DHT22;10245;51.344;6.620;2024-03-17T12:59:16;13.90;63.90
20171;DHT22;10245;51.344;6.620;2024-03-17T13:02:01;13.80;63.00
20171;DHT22;10245;51.344;6.620;2024-03-17T13:04:23;13.90;62.70
20171;DHT22;10245;51.344;6.620;2024-03-17T13:06:45;14.00;64.30
20171;DHT22;10245;51.344;6.620;2024-03-17T13:09:08;13.90;63.80
20171;DHT22;10245;51.344;6.620;2024-03-17T13:11:31;14.00;63.40
20171;DHT22;10245;51.344;6.620;2024-03-17T13:13:56;14.00;64.40
20171;DHT22;10245;51.344;6.620;2024-03-17T13:16:19;14.10;64.30
20171;DHT22;10245;51.344;6.620;2024-03-17T13:18:42;14.00;61.60
20171;DHT22;10245;51.344;6.620;2024-03-17T13:21:05;13.90;62.00
20171;DHT22;10245;51.344;6.620;2024-03-17T13:23:29;14.00;62.90
20171;DHT22;10245;51.344;6.620;2024-03-17T13:25:51;13.90;61.70
20171;DHT22;10245;51.344;6.620;2024-03-17T13:28:14;13.80;63.60
20171;DHT22;10245;51.344;6.620;2024-03-17T13:30:37;13.90;64.70
20171;DHT22;10245;51.344;6.620;2024-03-17T13:33:02;14.00;63.80
20171;DHT22;10245;51.344;6.620;2024-03-17T13:35:29;14.00;64.90
20171;DHT22;10245;51.344;6.620;2024-03-17T13:37:52;13.90;62.90
20171;DHT22;10245;51.344;6.620;2024-03-17T13:40:18;14.00;64.90
20171;DHT22;10245;51.344;6.620;2024-03-17T13:42:40;14.10;63.70
20171;DHT22;10245;51.344;6.620;2024-03-17T13:45:03;14.00;63.20
20171;DHT22;10245;51.344;6.620;2024-03-17T13:47:28;14.00;63.20
20171;DHT22;10245;51.344;6.620;2024-03-17T13:49:51;14.00;63.90
20171;DHT22;10245;51.344;6.620;2024-03-17T13:52:13;14.00;64.00
20171;DHT22;10245;51.344;6.620;2024-03-17T13:54:35;14.10;64.40
20171;DHT22;10245;51.344;6.620;2024-03-17T13:56:58;13.90;64.50
20171;DHT22;10245;51.344;6.620;2024-03-17T13:59:22;14.00;64.30
20171;DHT22;10245;51.344;6.620;2024-03-17T14:01:45;14.00;63.50
20171;DHT22;10245;51.344;6.620;2024-03-17T14:04:14;14.00;64.60
20171;DHT22;10245;51.344;6.620;2024-03-17T14:06:37;14.00;64.50
20171;DHT22;10245;51.344;6.620;2024-03-17T14:09:00;13.90;64.40
20171;DHT22;10245;51.344;6.620;2024-03-17T14:11:24;13.90;63.30
20171;DHT22;10245;51.344;6.620;2024-03-17T14:13:46;14.00;64.30
20171;DHT22;10245;51.344;6.620;2024-03-17T14:16:09;14.10;63.10
20171;DHT22;10245;51.344;6.620;2024-03-17T14:18:31;14.00;63.00
20171;DHT22;10245;51.344;6.620;2024-03-17T14:20:55;14.00;63.40
20171;DHT22;10245;51.344;6.620;2024-03-17T14:23:18;14.00;63.90
20171;DHT22;10245;51.344;6.620;2024-03-17T14:25:40;14.20;64.30
20171;DHT22;10245;51.344;6.620;2024-03-17T14:28:02;14.10;63.90
20171;DHT22;10245;51.344;6.620;2024-03-17T14:30:26;14.30;63.50
20171;DHT22;10245;51.344;6.620;2024-03-17T14:32:48;14.20;64.80
20171;DHT22;10245;51.344;6.620;2024-03-17T14:35:13;14.30;63.70
20171;DHT22;10245;51.344;6.620;2024-03-17T14:37:37;14.20;64.00
20171;DHT22;10245;51.344;6.620;2024-03-17T14:39:59;14.30;64.70
20171;DHT22;10245;51.344;6.620;2024-03-17T14:42:23;14.30;64.10
20171;DHT22;10245;51.344;6.620;2024-03-17T14:44:45;14.10;62.90
20171;DHT22;10245;51.344;6.620;2024-03-17T14:47:09;14.10;62.70
20171;DHT22;10245;51.344;6.620;2024-03-17T14:49:33;14.20;63.00
20171;DHT22;10245;51.344;6.620;2024-03-17T14:51:55;14.20;62.90
20171;DHT22;10245;51.344;6.620;2024-03-17T14:54:20;14.20;62.30
20171;DHT22;10245;51.344;6.620;2024-03-17T14:56:42;14.20;62.10
20171;DHT22;10245;51.344;6.620;2024-03-17T14:59:07;14.30;61.00
20171;DHT22;10245;51.344;6.620;2024-03-17T15:01:30;14.50;63.20
20171;DHT22;10245;51.344;6.620;2024-03-17T15:03:52;14.50;59.90
20171;DHT22;10245;51.344;6.620;2024-03-17T15:06:15;14.50;60.10
20171;DHT22;10245;51.344;6.620;2024-03-17T15:08:39;14.80;63.40
20171;DHT22;10245;51.344;6.620;2024-03-17T15:11:03;14.70;60.40
20171;DHT22;10245;51.344;6.620;2024-03-17T15:13:25;14.60;60.50
20171;DHT22;10245;51.344;6.620;2024-03-17T15:15:48;14.80;60.80
20171;DHT22;10245;51.344;6.620;2024-03-17T15:18:11;14.70;59.20